sensor_id;sensor_type;location;lat;lon;timestamp;pressure;altitude;pressure_sealevel;temperature;humidity
46768;BME280;69007;48.978;18.066;2023-04-22T00:00:26;97369.28;;;10.27;68.33
46768;BME280;69007;48.978;18.066;2023-04-22T00:02:53;97366.00;;;10.25;67.99
46768;BME280;69007;48.978;18.066;2023-04-22T00:05:20;97370.09;;;10.27;68.33
46768;BME280;69007;48.978;18.066;2023-04-22T00:07:45;97385.06;;;10.25;67.74
46768;BME280;69007;48.978;18.066;2023-04-22T00:10:11;97374.69;;;10.11;67.81
46768;BME280;69007;48.978;18.066;2023-04-22T00:12:36;97374.13;;;10.09;68.48
46768;BME280;69007;48.978;18.066;2023-04-22T00:15:02;97365.97;;;10.04;68.53
46768;BME280;69007;48.978;18.066;2023-04-22T00:17:27;97382.84;;;10.11;67.76
46768;BME280;69007;48.978;18.066;2023-04-22T00:19:53;97374.69;;;10.11;67.37
46768;BME280;69007;48.978;18.066;2023-04-22T00:22:19;97377.16;;;10.18;67.14
46768;BME280;69007;48.978;18.066;2023-04-22T00:24:44;97367.88;;;10.14;67.55
46768;BME280;69007;48.978;18.066;2023-04-22T00:27:09;97377.97;;;10.19;67.36
46768;BME280;69007;48.978;18.066;2023-04-22T00:29:35;97363.25;;;10.04;68.34
46768;BME280;69007;48.978;18.066;2023-04-22T00:32:00;97366.50;;;10.01;68.19
46768;BME280;69007;48.978;18.066;2023-04-22T00:34:26;97380.13;;;10.17;68.32
46768;BME280;69007;48.978;18.066;2023-04-22T00:36:51;97369.22;;;10.06;67.77
46768;BME280;69007;48.978;18.066;2023-04-22T00:39:16;97386.63;;;10.00;67.83
46768;BME280;69007;48.978;18.066;2023-04-22T00:41:42;97369.47;;;10.00;67.73
46768;BME280;69007;48.978;18.066;2023-04-22T00:44:11;97366.50;;;10.01;67.86
46768;BME280;69007;48.978;18.066;2023-04-22T00:46:37;97363.50;;;10.03;67.97
46768;BME280;69007;48.978;18.066;2023-04-22T00:49:04;97377.38;;;10.01;67.88
46768;BME280;69007;48.978;18.066;2023-04-22T00:51:30;97367.25;;;9.81;68.72
46768;BME280;69007;48.978;18.066;2023-04-22T00:53:56;97369.66;;;9.62;69.38
46768;BME280;69007;48.978;18.066;2023-04-22T00:56:24;97379.13;;;9.59;71.18
46768;BME280;69007;48.978;18.066;2023-04-22T00:58:51;97370.25;;;9.21;74.47
46768;BME280;69007;48.978;18.066;2023-04-22T01:01:17;97388.72;;;9.19;74.33
46768;BME280;69007;48.978;18.066;2023-04-22T01:03:43;97388.88;;;9.02;74.85
46768;BME280;69007;48.978;18.066;2023-04-22T01:06:10;97387.50;;;9.00;74.60
46768;BME280;69007;48.978;18.066;2023-04-22T01:08:35;97391.59;;;9.02;75.05
46768;BME280;69007;48.978;18.066;2023-04-22T01:11:01;97373.09;;;8.94;74.96
46768;BME280;69007;48.978;18.066;2023-04-22T01:13:26;97375.84;;;8.99;75.34
46768;BME280;69007;48.978;18.066;2023-04-22T01:15:52;97389.94;;;9.01;74.74
46768;BME280;69007;48.978;18.066;2023-04-22T01:18:18;97371.75;;;9.02;75.14
46768;BME280;69007;48.978;18.066;2023-04-22T01:20:44;97379.09;;;9.01;74.84
46768;BME280;69007;48.978;18.066;2023-04-22T01:23:19;97368.50;;;9.00;77.20
46768;BME280;69007;48.978;18.066;2023-04-22T01:25:46;97378.03;;;9.02;74.47
46768;BME280;69007;48.978;18.066;2023-04-22T01:28:12;97366.00;;;8.93;74.13
46768;BME280;69007;48.978;18.066;2023-04-22T01:30:38;97385.69;;;9.11;74.08
46768;BME280;69007;48.978;18.066;2023-04-22T01:33:04;97393.00;;;9.15;73.96
46768;BME280;69007;48.978;18.066;2023-04-22T01:35:29;97385.19;;;9.19;73.97
46768;BME280;69007;48.978;18.066;2023-04-22T01:38:04;97385.63;;;9.06;74.80
46768;BME280;69007;48.978;18.066;2023-04-22T01:40:31;97391.97;;;8.84;75.51
46768;BME280;69007;48.978;18.066;2023-04-22T01:42:58;97392.72;;;8.42;79.71
46768;BME280;69007;48.978;18.066;2023-04-22T01:45:24;97390.75;;;8.37;78.54
46768;BME280;69007;48.978;18.066;2023-04-22T01:47:50;97390.00;;;8.42;77.98
46768;BME280;69007;48.978;18.066;2023-04-22T01:50:15;97414.53;;;8.52;78.43
46768;BME280;69007;48.978;18.066;2023-04-22T01:52:41;97397.69;;;8.50;78.14
46768;BME280;69007;48.978;18.066;2023-04-22T01:55:07;97405.78;;;8.45;78.54
46768;BME280;69007;48.978;18.066;2023-04-22T01:57:32;97388.94;;;8.43;78.34
46768;BME280;69007;48.978;18.066;2023-04-22T01:59:58;97399.56;;;8.49;79.78
46768;BME280;69007;48.978;18.066;2023-04-22T02:02:23;97392.47;;;8.43;79.55
46768;BME280;69007;48.978;18.066;2023-04-22T02:04:48;97381.19;;;8.29;80.04
46768;BME280;69007;48.978;18.066;2023-04-22T02:07:14;97393.53;;;8.42;78.86
46768;BME280;69007;48.978;18.066;2023-04-22T02:09:39;97389.53;;;8.45;78.73
46768;BME280;69007;48.978;18.066;2023-04-22T02:12:04;97405.78;;;8.45;78.72
46768;BME280;69007;48.978;18.066;2023-04-22T02:14:30;97396.44;;;8.36;79.49
46768;BME280;69007;48.978;18.066;2023-04-22T02:16:55;97393.78;;;8.41;78.80
46768;BME280;69007;48.978;18.066;2023-04-22T02:19:20;97383.44;;;8.38;78.39
46768;BME280;69007;48.978;18.066;2023-04-22T02:21:46;97382.84;;;8.30;79.33
46768;BME280;69007;48.978;18.066;2023-04-22T02:24:11;97399.66;;;8.33;78.51
46768;BME280;69007;48.978;18.066;2023-04-22T02:26:36;97382.53;;;8.27;78.37
46768;BME280;69007;48.978;18.066;2023-04-22T02:29:02;97401.66;;;8.42;77.82
46768;BME280;69007;48.978;18.066;2023-04-22T02:31:27;97383.59;;;8.48;77.62
46768;BME280;69007;48.978;18.066;2023-04-22T02:33:52;97371.59;;;8.44;78.59
46768;BME280;69007;48.978;18.066;2023-04-22T02:36:18;97377.88;;;8.49;77.85
46768;BME280;69007;48.978;18.066;2023-04-22T02:38:43;97367.16;;;8.38;77.26
46768;BME280;69007;48.978;18.066;2023-04-22T02:41:08;97385.97;;;8.44;76.70
46768;BME280;69007;48.978;18.066;2023-04-22T02:43:33;97381.69;;;8.26;77.57
46768;BME280;69007;48.978;18.066;2023-04-22T02:45:59;97373.53;;;8.21;78.05
46768;BME280;69007;48.978;18.066;2023-04-22T02:48:24;97393.69;;;8.30;78.59
46768;BME280;69007;48.978;18.066;2023-04-22T02:50:50;97392.44;;;8.16;78.95
46768;BME280;69007;48.978;18.066;2023-04-22T02:53:15;97381.50;;;8.06;79.28
46768;BME280;69007;48.978;18.066;2023-04-22T02:55:41;97378.56;;;8.07;78.66
46768;BME280;69007;48.978;18.066;2023-04-22T02:58:06;97398.13;;;8.15;78.79
46768;BME280;69007;48.978;18.066;2023-04-22T03:00:33;97385.34;;;8.10;78.58
46768;BME280;69007;48.978;18.066;2023-04-22T03:02:58;97377.75;;;8.07;78.83
46768;BME280;69007;48.978;18.066;2023-04-22T03:05:23;97388.63;;;8.12;79.14
46768;BME280;69007;48.978;18.066;2023-04-22T03:07:49;97386.13;;;8.05;78.61
46768;BME280;69007;48.978;18.066;2023-04-22T03:10:14;97384.16;;;8.01;78.54
46768;BME280;69007;48.978;18.066;2023-04-22T03:12:40;97382.56;;;8.05;78.89
46768;BME280;69007;48.978;18.066;2023-04-22T03:15:06;97375.94;;;7.90;79.10
46768;BME280;69007;48.978;18.066;2023-04-22T03:17:31;97381.47;;;8.01;78.70
46768;BME280;69007;48.978;18.066;2023-04-22T03:19:57;97388.00;;;8.05;78.91
46768;BME280;69007;48.978;18.066;2023-04-22T03:22:22;97383.09;;;8.02;78.95
46768;BME280;69007;48.978;18.066;2023-04-22T03:24:47;97399.66;;;8.05;78.96
46768;BME280;69007;48.978;18.066;2023-04-22T03:27:13;97397.78;;;8.06;78.40
46768;BME280;69007;48.978;18.066;2023-04-22T03:29:38;97391.78;;;8.04;78.48
46768;BME280;69007;48.978;18.066;2023-04-22T03:32:03;97396.91;;;8.00;77.88
46768;BME280;69007;48.978;18.066;2023-04-22T03:34:28;97396.84;;;7.95;78.19
46768;BME280;69007;48.978;18.066;2023-04-22T03:36:54;97406.50;;;7.86;78.81
46768;BME280;69007;48.978;18.066;2023-04-22T03:39:19;97389.16;;;7.87;79.04
46768;BME280;69007;48.978;18.066;2023-04-22T03:41:45;97395.59;;;7.81;78.99
46768;BME280;69007;48.978;18.066;2023-04-22T03:44:10;97409.72;;;7.83;78.99
46768;BME280;69007;48.978;18.066;2023-04-22T03:46:35;97400.84;;;7.87;78.93
46768;BME280;69007;48.978;18.066;2023-04-22T03:49:01;97413.09;;;7.95;78.82
46768;BME280;69007;48.978;18.066;2023-04-22T03:51:26;97392.94;;;7.86;78.55
46768;BME280;69007;48.978;18.066;2023-04-22T03:53:51;97390.84;;;7.93;78.60
46768;BME280;69007;48.978;18.066;2023-04-22T03:56:17;97397.78;;;8.06;78.87
46768;BME280;69007;48.978;18.066;2023-04-22T03:58:42;97403.34;;;7.94;78.80
46768;BME280;69007;48.978;18.066;2023-04-22T04:01:07;97412.16;;;7.84;79.46
46768;BME280;69007;48.978;18.066;2023-04-22T04:03:33;97387.78;;;7.84;79.35
46768;BME280;69007;48.978;18.066;2023-04-22T04:05:58;97405.78;;;7.96;79.01
46768;BME280;69007;48.978;18.066;2023-04-22T04:08:23;97415.88;;;8.00;80.23
46768;BME280;69007;48.978;18.066;2023-04-22T04:10:48;97412.34;;;8.00;82.15
46768;BME280;69007;48.978;18.066;2023-04-22T04:13:14;97398.97;;;7.93;82.79
46768;BME280;69007;48.978;18.066;2023-04-22T04:15:39;97417.84;;;8.10;81.54
46768;BME280;69007;48.978;18.066;2023-04-22T04:18:05;97420.28;;;8.34;79.57
46768;BME280;69007;48.978;18.066;2023-04-22T04:20:30;97411.97;;;8.73;79.04
46768;BME280;69007;48.978;18.066;2023-04-22T04:22:55;97422.03;;;9.10;77.74
46768;BME280;69007;48.978;18.066;2023-04-22T04:25:21;97414.16;;;9.56;74.75
46768;BME280;69007;48.978;18.066;2023-04-22T04:27:47;97431.78;;;10.11;73.23
46768;BME280;69007;48.978;18.066;2023-04-22T04:30:12;97408.50;;;10.41;71.98
46768;BME280;69007;48.978;18.066;2023-04-22T04:32:39;97432.47;;;10.96;69.95
46768;BME280;69007;48.978;18.066;2023-04-22T04:35:04;97403.59;;;11.20;68.39
46768;BME280;69007;48.978;18.066;2023-04-22T04:37:30;97409.50;;;11.58;67.66
46768;BME280;69007;48.978;18.066;2023-04-22T04:39:55;97431.75;;;11.81;67.40
46768;BME280;69007;48.978;18.066;2023-04-22T04:42:23;97420.28;;;11.94;67.16
46768;BME280;69007;48.978;18.066;2023-04-22T04:44:49;97440.75;;;12.47;65.92
46768;BME280;69007;48.978;18.066;2023-04-22T04:47:15;97436.72;;;12.79;64.43
46768;BME280;69007;48.978;18.066;2023-04-22T04:49:40;97431.00;;;13.09;62.72
46768;BME280;69007;48.978;18.066;2023-04-22T04:52:05;97444.38;;;13.11;62.30
46768;BME280;69007;48.978;18.066;2023-04-22T04:54:34;97430.28;;;12.64;63.30
46768;BME280;69007;48.978;18.066;2023-04-22T04:56:59;97422.13;;;12.59;63.95
46768;BME280;69007;48.978;18.066;2023-04-22T04:59:26;97432.97;;;12.69;63.57
46768;BME280;69007;48.978;18.066;2023-04-22T05:01:51;97429.00;;;12.86;63.29
46768;BME280;69007;48.978;18.066;2023-04-22T05:04:17;97423.47;;;13.25;62.45
46768;BME280;69007;48.978;18.066;2023-04-22T05:06:42;97432.78;;;12.95;62.78
46768;BME280;69007;48.978;18.066;2023-04-22T05:09:07;97439.84;;;12.96;63.28
46768;BME280;69007;48.978;18.066;2023-04-22T05:11:33;97447.66;;;13.42;61.87
46768;BME280;69007;48.978;18.066;2023-04-22T05:13:59;97429.94;;;13.40;61.59
46768;BME280;69007;48.978;18.066;2023-04-22T05:16:24;97425.75;;;13.48;61.43
46768;BME280;69007;48.978;18.066;2023-04-22T05:18:50;97437.41;;;13.58;61.72
46768;BME280;69007;48.978;18.066;2023-04-22T05:21:15;97427.16;;;13.45;63.00
46768;BME280;69007;48.978;18.066;2023-04-22T05:23:41;97433.06;;;13.23;63.50
46768;BME280;69007;48.978;18.066;2023-04-22T05:26:06;97417.56;;;13.72;63.05
46768;BME280;69007;48.978;18.066;2023-04-22T05:28:31;97406.34;;;13.97;61.68
46768;BME280;69007;48.978;18.066;2023-04-22T05:30:56;97427.50;;;14.11;61.26
46768;BME280;69007;48.978;18.066;2023-04-22T05:33:22;97417.81;;;14.18;61.17
46768;BME280;69007;48.978;18.066;2023-04-22T05:35:47;97427.31;;;14.45;60.53
46768;BME280;69007;48.978;18.066;2023-04-22T05:38:12;97442.06;;;15.20;59.35
46768;BME280;69007;48.978;18.066;2023-04-22T05:40:38;97429.38;;;15.85;57.00
46768;BME280;69007;48.978;18.066;2023-04-22T05:43:04;97418.22;;;16.46;56.34
46768;BME280;69007;48.978;18.066;2023-04-22T05:45:30;97431.94;;;16.96;54.57
46768;BME280;69007;48.978;18.066;2023-04-22T05:47:55;97417.16;;;17.37;53.85
46768;BME280;69007;48.978;18.066;2023-04-22T05:50:21;97431.78;;;17.46;52.28
46768;BME280;69007;48.978;18.066;2023-04-22T05:52:46;97428.25;;;17.01;54.18
46768;BME280;69007;48.978;18.066;2023-04-22T05:55:11;97435.22;;;16.48;55.78
46768;BME280;69007;48.978;18.066;2023-04-22T05:57:37;97426.13;;;15.97;56.35
46768;BME280;69007;48.978;18.066;2023-04-22T06:00:03;97437.41;;;15.95;57.07
46768;BME280;69007;48.978;18.066;2023-04-22T06:02:29;97424.59;;;16.05;56.37
46768;BME280;69007;48.978;18.066;2023-04-22T06:04:54;97424.53;;;16.46;55.45
46768;BME280;69007;48.978;18.066;2023-04-22T06:07:20;97434.25;;;17.03;54.14
46768;BME280;69007;48.978;18.066;2023-04-22T06:09:45;97432.19;;;17.08;53.16
46768;BME280;69007;48.978;18.066;2023-04-22T06:12:10;97433.28;;;17.30;53.47
46768;BME280;69007;48.978;18.066;2023-04-22T06:14:36;97421.78;;;17.50;53.07
46768;BME280;69007;48.978;18.066;2023-04-22T06:17:01;97429.47;;;18.02;51.42
46768;BME280;69007;48.978;18.066;2023-04-22T06:19:27;97426.13;;;17.83;49.92
46768;BME280;69007;48.978;18.066;2023-04-22T06:21:52;97427.66;;;17.66;49.51
46768;BME280;69007;48.978;18.066;2023-04-22T06:24:18;97438.09;;;18.27;48.67
46768;BME280;69007;48.978;18.066;2023-04-22T06:26:43;97427.94;;;18.54;48.83
46768;BME280;69007;48.978;18.066;2023-04-22T06:29:08;97431.41;;;18.02;46.61
46768;BME280;69007;48.978;18.066;2023-04-22T06:31:34;97442.34;;;17.30;50.71
46768;BME280;69007;48.978;18.066;2023-04-22T06:33:59;97439.94;;;17.06;51.21
46768;BME280;69007;48.978;18.066;2023-04-22T06:36:25;97445.00;;;17.13;50.16
46768;BME280;69007;48.978;18.066;2023-04-22T06:38:51;97429.25;;;16.32;52.08
46768;BME280;69007;48.978;18.066;2023-04-22T06:41:17;97439.84;;;15.97;52.36
46768;BME280;69007;48.978;18.066;2023-04-22T06:43:42;97434.16;;;15.93;52.66
46768;BME280;69007;48.978;18.066;2023-04-22T06:46:08;97432.44;;;15.97;51.80
46768;BME280;69007;48.978;18.066;2023-04-22T06:48:34;97434.78;;;15.76;52.44
46768;BME280;69007;48.978;18.066;2023-04-22T06:50:59;97418.09;;;15.73;51.92
46768;BME280;69007;48.978;18.066;2023-04-22T06:53:26;97435.31;;;15.45;51.79
46768;BME280;69007;48.978;18.066;2023-04-22T06:55:51;97421.44;;;15.70;52.48
46768;BME280;69007;48.978;18.066;2023-04-22T06:58:18;97425.31;;;15.96;50.50
46768;BME280;69007;48.978;18.066;2023-04-22T07:00:44;97451.13;;;16.23;50.88
46768;BME280;69007;48.978;18.066;2023-04-22T07:03:09;97419.25;;;15.86;51.36
46768;BME280;69007;48.978;18.066;2023-04-22T07:05:34;97445.00;;;16.26;50.58
46768;BME280;69007;48.978;18.066;2023-04-22T07:08:00;97429.75;;;17.07;48.80
46768;BME280;69007;48.978;18.066;2023-04-22T07:10:25;97425.47;;;17.46;48.36
46768;BME280;69007;48.978;18.066;2023-04-22T07:12:51;97424.16;;;17.21;47.26
46768;BME280;69007;48.978;18.066;2023-04-22T07:15:16;97436.31;;;17.82;48.09
46768;BME280;69007;48.978;18.066;2023-04-22T07:17:41;97420.19;;;17.58;48.17
46768;BME280;69007;48.978;18.066;2023-04-22T07:20:07;97430.94;;;17.15;49.24
46768;BME280;69007;48.978;18.066;2023-04-22T07:22:33;97443.03;;;17.59;49.21
46768;BME280;69007;48.978;18.066;2023-04-22T07:24:58;97439.59;;;17.62;48.80
46768;BME280;69007;48.978;18.066;2023-04-22T07:27:24;97427.41;;;18.17;48.74
46768;BME280;69007;48.978;18.066;2023-04-22T07:29:49;97435.72;;;17.31;49.75
46768;BME280;69007;48.978;18.066;2023-04-22T07:32:15;97439.41;;;16.82;51.86
46768;BME280;69007;48.978;18.066;2023-04-22T07:34:40;97426.78;;;16.81;51.99
46768;BME280;69007;48.978;18.066;2023-04-22T07:37:05;97433.25;;;16.62;52.39
46768;BME280;69007;48.978;18.066;2023-04-22T07:39:31;97431.44;;;16.57;52.91
46768;BME280;69007;48.978;18.066;2023-04-22T07:41:57;97428.88;;;16.61;51.67
46768;BME280;69007;48.978;18.066;2023-04-22T07:44:22;97435.75;;;16.72;52.31
46768;BME280;69007;48.978;18.066;2023-04-22T07:46:48;97429.25;;;17.59;50.83
46768;BME280;69007;48.978;18.066;2023-04-22T07:49:14;97440.78;;;18.01;50.71
46768;BME280;69007;48.978;18.066;2023-04-22T07:51:41;97431.69;;;18.58;49.79
46768;BME280;69007;48.978;18.066;2023-04-22T07:54:06;97434.50;;;18.18;51.85
46768;BME280;69007;48.978;18.066;2023-04-22T07:56:32;97435.78;;;17.40;54.04
46768;BME280;69007;48.978;18.066;2023-04-22T07:58:58;97425.97;;;16.80;55.33
46768;BME280;69007;48.978;18.066;2023-04-22T08:01:23;97423.75;;;17.27;53.92
46768;BME280;69007;48.978;18.066;2023-04-22T08:03:49;97422.47;;;17.96;51.26
46768;BME280;69007;48.978;18.066;2023-04-22T08:06:14;97427.03;;;18.10;49.69
46768;BME280;69007;48.978;18.066;2023-04-22T08:08:39;97422.00;;;17.72;47.41
46768;BME280;69007;48.978;18.066;2023-04-22T08:11:06;97421.56;;;17.16;48.20
46768;BME280;69007;48.978;18.066;2023-04-22T08:13:32;97412.53;;;17.24;49.22
46768;BME280;69007;48.978;18.066;2023-04-22T08:15:59;97428.09;;;17.28;48.94
46768;BME280;69007;48.978;18.066;2023-04-22T08:18:25;97437.31;;;17.55;48.30
46768;BME280;69007;48.978;18.066;2023-04-22T08:20:50;97421.06;;;18.16;47.92
46768;BME280;69007;48.978;18.066;2023-04-22T08:23:15;97407.78;;;17.69;47.81
46768;BME280;69007;48.978;18.066;2023-04-22T08:25:41;97408.22;;;18.03;47.50
46768;BME280;69007;48.978;18.066;2023-04-22T08:28:06;97429.78;;;18.01;45.86
46768;BME280;69007;48.978;18.066;2023-04-22T08:30:31;97418.63;;;18.15;49.15
46768;BME280;69007;48.978;18.066;2023-04-22T08:32:57;97404.53;;;18.16;47.82
46768;BME280;69007;48.978;18.066;2023-04-22T08:35:22;97403.25;;;18.05;48.67
46768;BME280;69007;48.978;18.066;2023-04-22T08:37:47;97408.09;;;18.08;50.84
46768;BME280;69007;48.978;18.066;2023-04-22T08:40:13;97416.19;;;18.04;46.23
46768;BME280;69007;48.978;18.066;2023-04-22T08:42:38;97422.06;;;18.20;46.77
46768;BME280;69007;48.978;18.066;2023-04-22T08:45:04;97420.56;;;18.05;48.05
46768;BME280;69007;48.978;18.066;2023-04-22T08:47:31;97410.41;;;18.41;46.97
46768;BME280;69007;48.978;18.066;2023-04-22T08:50:01;97413.28;;;17.69;45.30
46768;BME280;69007;48.978;18.066;2023-04-22T08:52:29;97416.47;;;17.63;45.72
46768;BME280;69007;48.978;18.066;2023-04-22T08:54:55;97415.41;;;17.41;45.50
46768;BME280;69007;48.978;18.066;2023-04-22T08:57:20;97406.13;;;17.68;45.81
46768;BME280;69007;48.978;18.066;2023-04-22T08:59:47;97413.69;;;18.52;45.40
46768;BME280;69007;48.978;18.066;2023-04-22T09:02:18;97416.59;;;19.17;43.84
46768;BME280;69007;48.978;18.066;2023-04-22T09:04:46;97418.25;;;19.65;42.76
46768;BME280;69007;48.978;18.066;2023-04-22T09:07:18;97416.00;;;19.58;41.14
46768;BME280;69007;48.978;18.066;2023-04-22T09:09:46;97403.84;;;19.59;43.08
46768;BME280;69007;48.978;18.066;2023-04-22T09:12:12;97415.34;;;19.79;41.50
46768;BME280;69007;48.978;18.066;2023-04-22T09:14:38;97419.22;;;20.16;41.66
46768;BME280;69007;48.978;18.066;2023-04-22T09:17:03;97403.88;;;19.50;39.14
46768;BME280;69007;48.978;18.066;2023-04-22T09:19:28;97419.56;;;18.85;41.81
46768;BME280;69007;48.978;18.066;2023-04-22T09:21:57;97419.84;;;19.10;41.71
46768;BME280;69007;48.978;18.066;2023-04-22T09:24:23;97407.81;;;19.41;42.49
46768;BME280;69007;48.978;18.066;2023-04-22T09:26:48;97402.47;;;19.27;42.03
46768;BME280;69007;48.978;18.066;2023-04-22T09:29:15;97414.34;;;18.75;42.11
46768;BME280;69007;48.978;18.066;2023-04-22T09:31:40;97407.34;;;18.34;42.33
46768;BME280;69007;48.978;18.066;2023-04-22T09:34:07;97404.69;;;18.11;43.31
46768;BME280;69007;48.978;18.066;2023-04-22T09:36:33;97400.97;;;18.07;43.96
46768;BME280;69007;48.978;18.066;2023-04-22T09:39:01;97390.84;;;18.51;44.07
46768;BME280;69007;48.978;18.066;2023-04-22T09:41:34;97395.00;;;18.31;42.57
46768;BME280;69007;48.978;18.066;2023-04-22T09:44:03;97391.00;;;18.81;44.04
46768;BME280;69007;48.978;18.066;2023-04-22T09:46:30;97398.72;;;19.31;43.28
46768;BME280;69007;48.978;18.066;2023-04-22T09:48:57;97382.75;;;18.90;41.36
46768;BME280;69007;48.978;18.066;2023-04-22T09:51:23;97394.56;;;18.55;43.26
46768;BME280;69007;48.978;18.066;2023-04-22T09:53:59;97383.84;;;18.63;42.21
46768;BME280;69007;48.978;18.066;2023-04-22T09:59:34;97390.84;;;19.12;44.43
46768;BME280;69007;48.978;18.066;2023-04-22T10:02:00;97369.44;;;18.92;42.90
46768;BME280;69007;48.978;18.066;2023-04-22T10:04:28;97391.28;;;19.23;42.23
46768;BME280;69007;48.978;18.066;2023-04-22T10:06:54;97361.66;;;18.85;42.77
46768;BME280;69007;48.978;18.066;2023-04-22T10:09:21;97381.13;;;18.71;43.92
46768;BME280;69007;48.978;18.066;2023-04-22T10:11:49;97357.28;;;18.49;43.54
46768;BME280;69007;48.978;18.066;2023-04-22T10:14:15;97370.72;;;18.51;43.30
46768;BME280;69007;48.978;18.066;2023-04-22T10:16:42;97367.31;;;18.54;43.81
46768;BME280;69007;48.978;18.066;2023-04-22T10:19:13;97365.19;;;19.12;42.22
46768;BME280;69007;48.978;18.066;2023-04-22T10:21:42;97350.56;;;19.29;42.60
46768;BME280;69007;48.978;18.066;2023-04-22T10:24:14;97357.91;;;19.55;43.89
46768;BME280;69007;48.978;18.066;2023-04-22T10:26:53;97356.75;;;19.08;40.75
46768;BME280;69007;48.978;18.066;2023-04-22T10:29:21;97352.59;;;18.85;42.08
46768;BME280;69007;48.978;18.066;2023-04-22T10:31:54;97355.00;;;18.95;43.53
46768;BME280;69007;48.978;18.066;2023-04-22T10:34:22;97348.34;;;18.87;44.94
46768;BME280;69007;48.978;18.066;2023-04-22T10:36:59;97346.09;;;18.46;46.28
46768;BME280;69007;48.978;18.066;2023-04-22T10:39:27;97350.13;;;18.31;42.82
46768;BME280;69007;48.978;18.066;2023-04-22T10:44:26;97347.88;;;18.68;41.07
46768;BME280;69007;48.978;18.066;2023-04-22T10:49:20;97329.72;;;18.23;43.53
46768;BME280;69007;48.978;18.066;2023-04-22T10:51:47;97339.44;;;18.20;45.41
46768;BME280;69007;48.978;18.066;2023-04-22T10:57:09;97340.91;;;18.70;43.91
46768;BME280;69007;48.978;18.066;2023-04-22T10:59:45;97329.06;;;18.87;40.54
46768;BME280;69007;48.978;18.066;2023-04-22T11:02:12;97316.59;;;18.37;43.61
46768;BME280;69007;48.978;18.066;2023-04-22T11:04:38;97321.47;;;18.32;42.22
46768;BME280;69007;48.978;18.066;2023-04-22T11:15:19;97317.78;;;19.19;38.94
46768;BME280;69007;48.978;18.066;2023-04-22T11:17:49;97314.47;;;19.43;40.71
46768;BME280;69007;48.978;18.066;2023-04-22T11:20:15;97322.91;;;18.90;38.66
46768;BME280;69007;48.978;18.066;2023-04-22T11:22:43;97309.47;;;18.71;40.71
46768;BME280;69007;48.978;18.066;2023-04-22T11:25:09;97317.88;;;18.57;38.89
46768;BME280;69007;48.978;18.066;2023-04-22T11:27:36;97319.16;;;18.69;41.53
46768;BME280;69007;48.978;18.066;2023-04-22T11:32:35;97312.72;;;18.65;39.96
46768;BME280;69007;48.978;18.066;2023-04-22T11:35:25;97322.06;;;18.99;39.50
46768;BME280;69007;48.978;18.066;2023-04-22T11:37:53;97314.31;;;18.74;39.85
46768;BME280;69007;48.978;18.066;2023-04-22T11:40:25;97294.53;;;18.72;39.42
46768;BME280;69007;48.978;18.066;2023-04-22T11:42:51;97306.03;;;18.66;39.07
46768;BME280;69007;48.978;18.066;2023-04-22T11:45:17;97297.94;;;18.60;39.99
46768;BME280;69007;48.978;18.066;2023-04-22T11:47:42;97298.41;;;18.63;41.84
46768;BME280;69007;48.978;18.066;2023-04-22T11:50:11;97304.44;;;18.65;42.02
46768;BME280;69007;48.978;18.066;2023-04-22T11:52:48;97292.41;;;18.78;42.78
46768;BME280;69007;48.978;18.066;2023-04-22T11:57:51;97285.94;;;18.65;43.06
46768;BME280;69007;48.978;18.066;2023-04-22T12:00:17;97309.31;;;18.68;43.14
46768;BME280;69007;48.978;18.066;2023-04-22T12:02:42;97306.69;;;18.89;41.12
46768;BME280;69007;48.978;18.066;2023-04-22T12:05:18;97299.81;;;19.04;42.16
46768;BME280;69007;48.978;18.066;2023-04-22T12:07:43;97299.50;;;19.14;44.87
46768;BME280;69007;48.978;18.066;2023-04-22T12:10:09;97307.69;;;18.84;40.99
46768;BME280;69007;48.978;18.066;2023-04-22T12:12:38;97308.31;;;18.81;41.51
46768;BME280;69007;48.978;18.066;2023-04-22T12:15:10;97302.13;;;19.02;40.42
46768;BME280;69007;48.978;18.066;2023-04-22T12:17:36;97305.56;;;18.90;40.59
46768;BME280;69007;48.978;18.066;2023-04-22T12:20:02;97293.88;;;18.75;40.54
46768;BME280;69007;48.978;18.066;2023-04-22T12:22:29;97295.69;;;18.71;41.86
46768;BME280;69007;48.978;18.066;2023-04-22T12:25:00;97291.44;;;18.74;39.70
46768;BME280;69007;48.978;18.066;2023-04-22T12:27:27;97307.31;;;18.77;39.75
46768;BME280;69007;48.978;18.066;2023-04-22T12:29:54;97301.59;;;19.08;41.00
46768;BME280;69007;48.978;18.066;2023-04-22T12:32:21;97310.16;;;19.24;42.78
46768;BME280;69007;48.978;18.066;2023-04-22T12:34:47;97296.69;;;19.23;41.79
46768;BME280;69007;48.978;18.066;2023-04-22T12:37:12;97302.16;;;19.31;40.92
46768;BME280;69007;48.978;18.066;2023-04-22T12:39:38;97298.66;;;19.22;40.35
46768;BME280;69007;48.978;18.066;2023-04-22T12:42:04;97292.06;;;19.06;38.71
46768;BME280;69007;48.978;18.066;2023-04-22T12:44:30;97272.75;;;19.06;39.23
46768;BME280;69007;48.978;18.066;2023-04-22T12:46:56;97282.63;;;19.07;38.75
46768;BME280;69007;48.978;18.066;2023-04-22T12:49:21;97284.16;;;19.34;40.54
46768;BME280;69007;48.978;18.066;2023-04-22T12:51:47;97263.81;;;19.09;39.09
46768;BME280;69007;48.978;18.066;2023-04-22T12:54:12;97283.97;;;19.01;40.06
46768;BME280;69007;48.978;18.066;2023-04-22T12:56:38;97278.41;;;19.09;39.52
46768;BME280;69007;48.978;18.066;2023-04-22T12:59:03;97285.19;;;19.12;40.64
46768;BME280;69007;48.978;18.066;2023-04-22T13:01:29;97260.47;;;18.86;40.37
46768;BME280;69007;48.978;18.066;2023-04-22T13:03:54;97274.91;;;18.83;40.86
46768;BME280;69007;48.978;18.066;2023-04-22T13:06:19;97264.72;;;18.74;40.23
46768;BME280;69007;48.978;18.066;2023-04-22T13:08:45;97257.53;;;19.00;39.95
46768;BME280;69007;48.978;18.066;2023-04-22T13:11:10;97260.28;;;19.00;40.16